CheckWX is a tool to help pilots better visualize weather data.  It is not intended as a substitute for an official pre-flight weather briefing.

12:04:37 UTC

K1IW METAR
India Madis Automatic Weather Observing System
Sidney, Nebraska, USA
Current

1 hour ago

K1IW 041058Z AUTO 18009KT 10SM FEW110 M03/M08 A3003 RMK AO2 SLP194 T10341081 $
Observed
Apr-4 @ 10:58 UTC
Wind
  • 180° at 9 KTS
Visibility
Flight Rules
VFR
Cloud Levels
  • Few at 11,000' AGL
Temperature
-3°C / 27°F
Dewpoint
-8°C / 18°F
Humidity
69%
Altimeter
30.03" Hg
Pressure
1016.92 hPa
Previous

2 hours ago

K1IW 040958Z AUTO 19013KT 10SM BKN080 M02/M08 A3006 RMK AO2 SLP201 T10201080 $
Observed
Apr-4 @ 09:58 UTC
Wind
  • 190° at 13 KTS
Visibility
Flight Rules
VFR
Cloud Levels
  • Broken at 8,000' AGL
Temperature
-2°C / 28°F
Dewpoint
-8°C / 18°F
Humidity
64%
Altimeter
30.06" Hg
Pressure
1017.92 hPa
Previous

3 hours ago

K1IW 040858Z AUTO 18012G19KT 10SM FEW090 M02/M08 A3006 RMK AO2 SLP201 T10201081 58012 $
Observed
Apr-4 @ 08:58 UTC
Wind
  • 180° at 12 KTS
  • Gusting to 19 KTS
Visibility
Flight Rules
VFR
Cloud Levels
  • Few at 9,000' AGL
Temperature
-2°C / 28°F
Dewpoint
-8°C / 18°F
Humidity
64%
Altimeter
30.06" Hg
Pressure
1017.92 hPa